Time;durP1;ratioP1;P1;durP2;ratioP2;P2;SDS_P1;SDS_P2;PMS_P1;PMS_P2;Temp;Humidity;BMP_temperature;BMP_pressure;BME280_temperature;BME280_humidity;BME280_pressure;Samples;Min_cycle;Max_cycle;Signal;HPM_P1;HPM_P2
2021/04/29 00:02:09;;;;;;;2.50;1.60;;;;;;;;;;5079940;28;20067;-76
2021/04/29 00:04:34;;;;;;;2.53;1.70;;;;;;;;;;5057166;28;20082;-77
2021/04/29 00:07:00;;;;;;;2.80;1.60;;;;;;;;;;5072802;28;20068;-77
2021/04/29 00:09:25;;;;;;;2.97;1.80;;;;;;;;;;5095388;28;20056;-77
2021/04/29 00:11:51;;;;;;;3.30;1.50;;;;;;;;;;5084475;28;20071;-76
2021/04/29 00:14:16;;;;;;;2.43;1.60;;;;;;;;;;5057373;28;20035;-76
2021/04/29 00:16:42;;;;;;;2.87;1.73;;;;;;;;;;5057057;28;20028;-76
2021/04/29 00:19:07;;;;;;;2.40;1.50;;;;;;;;;;5057147;28;20387;-77
2021/04/29 00:21:33;;;;;;;2.50;1.50;;;;;;;;;;5074199;28;20040;-77
2021/04/29 00:23:58;;;;;;;2.53;1.53;;;;;;;;;;5095083;28;20040;-76
2021/04/29 00:26:23;;;;;;;2.10;1.50;;;;;;;;;;5077098;28;20106;-76
2021/04/29 00:28:49;;;;;;;3.10;1.50;;;;;;;;;;5076699;28;20499;-76
2021/04/29 00:31:14;;;;;;;3.03;1.80;;;;;;;;;;5076962;28;20491;-77
2021/04/29 00:33:40;;;;;;;2.53;1.60;;;;;;;;;;5076816;28;20608;-76
2021/04/29 00:36:05;;;;;;;3.27;1.73;;;;;;;;;;5093585;28;20103;-76
2021/04/29 00:38:31;;;;;;;2.17;1.30;;;;;;;;;;5094886;28;20460;-76
2021/04/29 00:40:56;;;;;;;2.57;1.50;;;;;;;;;;5076746;28;20055;-76
2021/04/29 00:43:21;;;;;;;3.83;1.70;;;;;;;;;;5076859;28;20421;-76
2021/04/29 00:45:47;;;;;;;2.93;1.60;;;;;;;;;;5093273;28;20460;-76
2021/04/29 00:48:13;;;;;;;2.87;1.60;;;;;;;;;;5069368;28;20440;-77
2021/04/29 00:50:38;;;;;;;2.33;1.43;;;;;;;;;;5073157;28;20035;-76
2021/04/29 00:53:03;;;;;;;2.37;1.40;;;;;;;;;;5056388;28;20060;-76
2021/04/29 00:55:28;;;;;;;2.27;1.40;;;;;;;;;;5073255;28;20115;-77
2021/04/29 00:57:54;;;;;;;2.67;1.53;;;;;;;;;;5072989;28;20111;-77
2021/04/29 01:00:20;;;;;;;2.87;1.80;;;;;;;;;;5073086;28;20499;-76
2021/04/29 01:03:12;;;;;;;2.60;1.57;;;;;;;;;;5074039;28;20483;-77
2021/04/29 01:05:40;;;;;;;2.45;1.45;;;;;;;;;;5044898;28;20103;-76
2021/04/29 01:08:52;;;;;;;2.83;1.60;;;;;;;;;;5056012;28;20032;-77
2021/04/29 01:11:20;;;;;;;2.72;1.60;;;;;;;;;;5039640;28;20045;-76
2021/04/29 01:13:51;;;;;;;2.17;1.38;;;;;;;;;;5056041;28;20041;-76
2021/04/29 01:16:17;;;;;;;2.72;1.60;;;;;;;;;;5056101;28;20494;-76
2021/04/29 01:18:42;;;;;;;2.15;1.48;;;;;;;;;;5055958;28;20040;-76
2021/04/29 01:21:14;;;;;;;3.20;1.60;;;;;;;;;;5055779;28;20395;-77
2021/04/29 01:23:40;;;;;;;2.78;1.63;;;;;;;;;;5056194;28;20465;-76
2021/04/29 01:26:15;;;;;;;2.80;1.70;;;;;;;;;;5074057;28;20119;-76
2021/04/29 01:28:41;;;;;;;3.15;1.65;;;;;;;;;;5055685;28;20040;-76
2021/04/29 01:31:06;;;;;;;2.30;1.50;;;;;;;;;;5055580;28;20039;-76
2021/04/29 01:33:31;;;;;;;2.40;1.53;;;;;;;;;;5055687;28;20032;-76
2021/04/29 01:35:57;;;;;;;2.20;1.40;;;;;;;;;;5055654;28;20442;-76
2021/04/29 01:38:22;;;;;;;2.60;1.50;;;;;;;;;;5055673;28;20395;-77
2021/04/29 01:40:48;;;;;;;2.80;1.70;;;;;;;;;;5055514;28;20448;-77
2021/04/29 01:43:13;;;;;;;2.60;1.50;;;;;;;;;;5055532;28;20059;-77
2021/04/29 01:45:41;;;;;;;3.00;1.60;;;;;;;;;;5055576;28;20067;-76
2021/04/29 01:48:07;;;;;;;3.38;1.40;;;;;;;;;;5055764;28;20024;-76
2021/04/29 01:50:32;;;;;;;2.80;1.50;;;;;;;;;;5055384;28;20043;-76
2021/04/29 01:52:58;;;;;;;3.03;1.63;;;;;;;;;;5055333;28;20024;-76
2021/04/29 01:55:23;;;;;;;2.97;1.70;;;;;;;;;;5055264;28;20086;-77
2021/04/29 01:57:52;;;;;;;2.33;1.50;;;;;;;;;;5055614;28;20036;-77
2021/04/29 02:00:17;;;;;;;2.67;1.50;;;;;;;;;;5055423;28;20032;-77
2021/04/29 02:02:43;;;;;;;2.87;1.70;;;;;;;;;;5055270;28;20479;-76
2021/04/29 02:05:09;;;;;;;2.33;1.50;;;;;;;;;;5071745;28;20483;-76
2021/04/29 02:07:34;;;;;;;2.40;1.48;;;;;;;;;;5055077;28;20529;-76
2021/04/29 02:09:59;;;;;;;2.83;1.60;;;;;;;;;;5055137;28;20079;-77
2021/04/29 02:12:25;;;;;;;3.40;1.60;;;;;;;;;;5055274;28;20060;-77
2021/04/29 02:14:55;;;;;;;2.87;1.70;;;;;;;;;;5055118;28;20031;-76
2021/04/29 02:17:28;;;;;;;2.13;1.30;;;;;;;;;;5054976;28;20086;-76
2021/04/29 02:19:55;;;;;;;2.65;1.55;;;;;;;;;;5055036;28;20055;-77
2021/04/29 02:22:20;;;;;;;2.35;1.42;;;;;;;;;;5055180;28;20037;-76
2021/04/29 02:24:46;;;;;;;2.43;1.57;;;;;;;;;;5054864;28;20075;-76
2021/04/29 02:27:11;;;;;;;2.13;1.43;;;;;;;;;;5054703;28;20064;-77
2021/04/29 02:29:40;;;;;;;2.27;1.43;;;;;;;;;;5055222;28;20064;-77
2021/04/29 02:32:06;;;;;;;2.22;1.33;;;;;;;;;;5071635;28;20032;-77
2021/04/29 02:34:31;;;;;;;2.67;1.40;;;;;;;;;;5071983;28;20032;-76
2021/04/29 02:36:56;;;;;;;2.37;1.40;;;;;;;;;;5058889;28;20094;-76
2021/04/29 02:39:22;;;;;;;2.07;1.40;;;;;;;;;;5059191;28;20142;-77
2021/04/29 02:41:47;;;;;;;2.97;1.73;;;;;;;;;;5076756;28;20491;-77
2021/04/29 02:44:12;;;;;;;2.43;1.47;;;;;;;;;;5058972;28;20484;-77
2021/04/29 02:46:41;;;;;;;2.40;1.47;;;;;;;;;;5058751;28;20597;-76
2021/04/29 02:49:07;;;;;;;3.90;1.63;;;;;;;;;;5058777;28;20501;-76
2021/04/29 02:51:37;;;;;;;2.53;1.50;;;;;;;;;;5058620;28;20036;-77
2021/04/29 02:54:08;;;;;;;2.75;1.60;;;;;;;;;;5075423;28;20035;-77
2021/04/29 02:56:37;;;;;;;2.53;1.40;;;;;;;;;;5075559;28;20056;-76
2021/04/29 02:59:02;;;;;;;2.40;1.48;;;;;;;;;;5058433;28;20054;-77
2021/04/29 03:01:28;;;;;;;2.90;1.33;;;;;;;;;;5076387;28;20036;-76
2021/04/29 03:03:53;;;;;;;3.80;1.40;;;;;;;;;;5058728;28;20130;-77
2021/04/29 03:06:18;;;;;;;2.60;1.40;;;;;;;;;;5075000;28;20578;-77
2021/04/29 03:08:44;;;;;;;2.33;1.40;;;;;;;;;;5041754;28;20032;-76
2021/04/29 03:11:09;;;;;;;2.23;1.47;;;;;;;;;;5058418;28;20035;-76
2021/04/29 03:13:34;;;;;;;2.03;1.30;;;;;;;;;;5074976;28;20104;-76
2021/04/29 03:16:00;;;;;;;3.60;1.50;;;;;;;;;;5074853;28;20392;-77
2021/04/29 03:18:25;;;;;;;2.50;1.40;;;;;;;;;;5058459;28;20056;-76
2021/04/29 03:20:50;;;;;;;2.30;1.40;;;;;;;;;;5058237;28;20059;-76
2021/04/29 03:23:16;;;;;;;2.50;1.43;;;;;;;;;;5058172;28;20090;-77
2021/04/29 03:25:41;;;;;;;2.33;1.40;;;;;;;;;;5074471;28;20109;-77
2021/04/29 03:28:06;;;;;;;2.47;1.50;;;;;;;;;;5070192;23;20564;-80
2021/04/29 03:30:32;;;;;;;3.03;1.50;;;;;;;;;;5060242;28;20043;-79
2021/04/29 03:32:58;;;;;;;2.47;1.47;;;;;;;;;;5076572;28;20070;-80
2021/04/29 03:35:23;;;;;;;2.53;1.40;;;;;;;;;;5060146;28;20490;-80
2021/04/29 03:37:48;;;;;;;2.43;1.70;;;;;;;;;;5043762;28;20318;-80
2021/04/29 03:40:14;;;;;;;2.40;1.60;;;;;;;;;;5060605;28;20106;-80
2021/04/29 03:42:39;;;;;;;2.33;1.50;;;;;;;;;;5060551;28;20395;-80
2021/04/29 03:45:05;;;;;;;1.97;1.23;;;;;;;;;;5043260;28;20410;-80
2021/04/29 03:47:31;;;;;;;2.45;1.58;;;;;;;;;;5059574;28;20079;-80
2021/04/29 03:49:56;;;;;;;2.23;1.37;;;;;;;;;;5043526;28;20142;-80
2021/04/29 03:52:21;;;;;;;2.00;1.40;;;;;;;;;;5044464;28;20036;-81
2021/04/29 03:54:47;;;;;;;3.27;1.43;;;;;;;;;;5060733;28;20119;-81
2021/04/29 03:57:12;;;;;;;3.03;1.50;;;;;;;;;;5042525;28;20063;-78
2021/04/29 03:59:37;;;;;;;2.87;1.43;;;;;;;;;;5041835;28;20032;-78
2021/04/29 04:02:03;;;;;;;2.90;1.73;;;;;;;;;;5042329;28;20047;-78
2021/04/29 04:04:28;;;;;;;2.50;1.40;;;;;;;;;;5059003;28;20048;-78
2021/04/29 04:06:54;;;;;;;2.20;1.50;;;;;;;;;;5041585;28;20072;-78
2021/04/29 04:09:19;;;;;;;1.90;1.20;;;;;;;;;;5058630;28;20055;-78
2021/04/29 04:11:45;;;;;;;2.20;1.30;;;;;;;;;;5042131;28;20033;-78
2021/04/29 04:14:10;;;;;;;1.93;1.50;;;;;;;;;;5074372;28;20566;-78
2021/04/29 04:16:35;;;;;;;2.50;1.53;;;;;;;;;;5041235;28;20500;-78
2021/04/29 04:19:01;;;;;;;2.77;1.70;;;;;;;;;;5057403;28;20068;-78
2021/04/29 04:21:26;;;;;;;2.87;1.40;;;;;;;;;;5074191;28;20032;-78
2021/04/29 04:23:52;;;;;;;2.10;1.33;;;;;;;;;;5040941;28;20028;-78
2021/04/29 04:26:17;;;;;;;2.83;1.53;;;;;;;;;;5040994;28;20046;-78
2021/04/29 04:28:42;;;;;;;1.80;1.27;;;;;;;;;;5073689;28;20035;-78
2021/04/29 04:31:08;;;;;;;2.20;1.30;;;;;;;;;;5040964;28;20434;-78
2021/04/29 04:33:34;;;;;;;2.33;1.45;;;;;;;;;;5058331;28;20028;-78
2021/04/29 04:35:59;;;;;;;2.00;1.40;;;;;;;;;;5057525;28;20134;-78
2021/04/29 04:38:24;;;;;;;2.67;1.53;;;;;;;;;;5057538;28;20166;-78
2021/04/29 04:40:50;;;;;;;2.83;1.60;;;;;;;;;;5038342;28;20064;-77
2021/04/29 04:43:15;;;;;;;2.60;1.43;;;;;;;;;;5037225;28;20036;-78
2021/04/29 04:45:43;;;;;;;4.17;1.30;;;;;;;;;;5048341;28;20115;-78
2021/04/29 04:48:12;;;;;;;2.03;1.25;;;;;;;;;;5040851;28;20063;-77
2021/04/29 04:50:37;;;;;;;2.55;1.30;;;;;;;;;;5056609;28;20040;-77
2021/04/29 04:53:03;;;;;;;1.97;1.40;;;;;;;;;;5056466;28;20097;-77
2021/04/29 04:55:28;;;;;;;1.97;1.33;;;;;;;;;;5056355;28;20041;-77
2021/04/29 04:57:54;;;;;;;2.67;1.40;;;;;;;;;;5055825;28;20031;-78
2021/04/29 05:00:19;;;;;;;2.80;1.60;;;;;;;;;;5072851;28;20078;-78
2021/04/29 05:02:45;;;;;;;2.30;1.37;;;;;;;;;;5039951;28;20055;-78
2021/04/29 05:05:11;;;;;;;1.70;1.13;;;;;;;;;;5039805;28;20465;-77
2021/04/29 05:07:36;;;;;;;1.80;1.30;;;;;;;;;;5039553;28;20512;-76
2021/04/29 05:10:01;;;;;;;2.60;1.40;;;;;;;;;;5072788;28;20028;-76
2021/04/29 05:12:27;;;;;;;2.10;1.23;;;;;;;;;;5039645;28;20036;-77
2021/04/29 05:14:52;;;;;;;2.37;1.40;;;;;;;;;;5074438;28;20029;-76
2021/04/29 05:17:17;;;;;;;2.23;1.40;;;;;;;;;;5072377;28;20028;-76
2021/04/29 05:19:44;;;;;;;2.10;1.20;;;;;;;;;;5072465;28;20483;-76
2021/04/29 05:22:10;;;;;;;1.92;1.35;;;;;;;;;;5072561;28;20541;-76
2021/04/29 05:24:36;;;;;;;2.28;1.40;;;;;;;;;;5056097;28;20032;-76
2021/04/29 05:27:01;;;;;;;2.60;1.17;;;;;;;;;;5072421;28;20103;-76
2021/04/29 05:29:27;;;;;;;2.37;1.47;;;;;;;;;;5073678;28;20281;-76
2021/04/29 05:31:54;;;;;;;2.25;1.20;;;;;;;;;;5055871;28;20079;-77
2021/04/29 05:34:19;;;;;;;2.53;1.45;;;;;;;;;;5039197;28;20426;-77
2021/04/29 05:36:45;;;;;;;2.40;1.40;;;;;;;;;;5072535;28;20040;-77
2021/04/29 05:39:10;;;;;;;2.13;1.27;;;;;;;;;;5055940;28;20055;-78
2021/04/29 05:41:35;;;;;;;2.63;1.50;;;;;;;;;;5039498;28;20406;-78
2021/04/29 05:44:01;;;;;;;2.00;1.40;;;;;;;;;;5072869;28;20525;-78
2021/04/29 05:46:26;;;;;;;2.53;1.37;;;;;;;;;;5040314;28;20033;-77
2021/04/29 05:48:52;;;;;;;2.33;1.30;;;;;;;;;;5039231;28;20036;-78
2021/04/29 05:51:17;;;;;;;2.40;1.47;;;;;;;;;;5039180;28;20047;-78
2021/04/29 05:53:42;;;;;;;1.97;1.30;;;;;;;;;;5039460;28;20039;-78
2021/04/29 05:56:08;;;;;;;2.57;1.47;;;;;;;;;;5038486;28;20036;-77
2021/04/29 05:58:33;;;;;;;2.17;1.30;;;;;;;;;;5056395;28;20021;-78
2021/04/29 06:00:59;;;;;;;2.27;1.30;;;;;;;;;;5036524;28;20024;-78
2021/04/29 06:03:24;;;;;;;2.07;1.30;;;;;;;;;;5019887;28;20511;-78
2021/04/29 06:05:50;;;;;;;2.00;1.30;;;;;;;;;;5036032;28;20490;-78
2021/04/29 06:08:15;;;;;;;3.33;1.53;;;;;;;;;;5019683;28;20033;-78
2021/04/29 06:10:40;;;;;;;2.27;1.50;;;;;;;;;;5019702;28;20032;-78
2021/04/29 06:13:06;;;;;;;2.43;1.30;;;;;;;;;;5019434;28;20492;-78
2021/04/29 06:15:31;;;;;;;2.60;1.50;;;;;;;;;;5079121;28;20035;-78
2021/04/29 06:17:56;;;;;;;1.90;1.20;;;;;;;;;;5072024;28;20064;-78
2021/04/29 06:20:23;;;;;;;2.17;1.30;;;;;;;;;;5039120;28;20067;-78
2021/04/29 06:22:48;;;;;;;2.28;1.20;;;;;;;;;;5056939;28;20372;-78
2021/04/29 06:25:13;;;;;;;2.67;1.30;;;;;;;;;;5077008;28;20071;-78
2021/04/29 06:27:39;;;;;;;2.07;1.30;;;;;;;;;;5054101;28;20109;-78
2021/04/29 06:30:05;;;;;;;2.17;1.30;;;;;;;;;;5072222;28;20086;-78
2021/04/29 06:32:31;;;;;;;2.78;1.33;;;;;;;;;;5055741;28;20035;-78
2021/04/29 06:34:56;;;;;;;1.77;1.20;;;;;;;;;;5072467;28;20029;-78
2021/04/29 06:37:21;;;;;;;2.03;1.30;;;;;;;;;;5072171;28;20059;-78
2021/04/29 06:39:47;;;;;;;2.10;1.40;;;;;;;;;;5039380;28;20491;-78
2021/04/29 06:42:13;;;;;;;1.90;1.17;;;;;;;;;;5039177;28;20077;-78
2021/04/29 06:44:39;;;;;;;3.55;1.30;;;;;;;;;;5039124;28;20028;-78
2021/04/29 06:47:04;;;;;;;2.10;1.30;;;;;;;;;;5039116;28;20476;-78
2021/04/29 06:49:29;;;;;;;2.00;1.27;;;;;;;;;;5038863;28;20064;-78
2021/04/29 06:51:55;;;;;;;2.93;1.40;;;;;;;;;;5038967;28;20075;-78
2021/04/29 06:54:20;;;;;;;2.13;1.30;;;;;;;;;;5039923;28;20037;-78
2021/04/29 06:56:46;;;;;;;2.23;1.20;;;;;;;;;;5039881;28;20036;-78
2021/04/29 06:59:11;;;;;;;2.57;1.20;;;;;;;;;;5038785;28;20400;-78
2021/04/29 07:01:36;;;;;;;2.17;1.30;;;;;;;;;;5055518;28;20052;-78
2021/04/29 07:04:02;;;;;;;2.40;1.30;;;;;;;;;;5038760;28;20029;-78
2021/04/29 07:06:27;;;;;;;1.87;1.20;;;;;;;;;;5038621;28;20036;-78
2021/04/29 07:08:52;;;;;;;2.63;1.40;;;;;;;;;;5039731;28;20487;-78
2021/04/29 07:11:18;;;;;;;3.17;1.30;;;;;;;;;;5035419;28;20132;-78
2021/04/29 07:13:43;;;;;;;2.80;1.37;;;;;;;;;;5042009;28;20063;-78
2021/04/29 07:16:09;;;;;;;2.17;1.20;;;;;;;;;;5056243;28;20029;-78
2021/04/29 07:18:34;;;;;;;2.93;1.30;;;;;;;;;;5072760;28;20036;-78
2021/04/29 07:20:59;;;;;;;1.80;1.30;;;;;;;;;;5056732;28;20567;-78
2021/04/29 07:23:25;;;;;;;2.07;1.10;;;;;;;;;;5060053;28;20032;-78
2021/04/29 07:25:51;;;;;;;1.67;1.02;;;;;;;;;;5075997;28;20056;-78
2021/04/29 07:28:16;;;;;;;2.07;1.23;;;;;;;;;;5062068;28;20036;-79
2021/04/29 07:30:42;;;;;;;3.37;1.30;;;;;;;;;;5044708;28;20497;-79
2021/04/29 07:33:08;;;;;;;1.70;1.10;;;;;;;;;;5042593;28;20036;-79
2021/04/29 07:35:33;;;;;;;2.22;1.30;;;;;;;;;;5075462;28;20103;-78
2021/04/29 07:37:59;;;;;;;2.17;1.20;;;;;;;;;;5038896;28;20032;-78
2021/04/29 07:40:24;;;;;;;2.50;1.30;;;;;;;;;;5026547;28;20048;-78
2021/04/29 07:42:49;;;;;;;1.73;1.20;;;;;;;;;;5038880;28;20039;-78
2021/04/29 07:45:15;;;;;;;2.43;1.17;;;;;;;;;;5022041;28;20119;-78
2021/04/29 07:47:40;;;;;;;3.63;1.30;;;;;;;;;;5022344;28;20060;-78
2021/04/29 07:50:06;;;;;;;1.87;1.20;;;;;;;;;;5055622;28;20028;-78
2021/04/29 07:52:32;;;;;;;1.75;1.00;;;;;;;;;;5038890;28;20376;-78
2021/04/29 07:54:57;;;;;;;2.90;1.27;;;;;;;;;;5038589;28;20103;-78
2021/04/29 07:57:24;;;;;;;2.10;1.07;;;;;;;;;;5038295;28;20051;-78
2021/04/29 07:59:49;;;;;;;1.92;1.17;;;;;;;;;;5038509;28;20037;-78
2021/04/29 08:02:14;;;;;;;1.77;1.23;;;;;;;;;;5038328;28;20047;-77
2021/04/29 08:04:40;;;;;;;2.87;1.40;;;;;;;;;;5038890;28;20035;-78
2021/04/29 08:07:05;;;;;;;2.80;1.30;;;;;;;;;;5021817;28;20028;-78
2021/04/29 08:09:30;;;;;;;2.80;1.13;;;;;;;;;;5038229;28;20110;-77
2021/04/29 08:11:56;;;;;;;2.40;1.17;;;;;;;;;;5037971;28;20391;-78
2021/04/29 08:14:21;;;;;;;1.87;1.17;;;;;;;;;;5037922;28;20073;-78
2021/04/29 08:16:48;;;;;;;2.33;1.27;;;;;;;;;;5021566;28;20024;-78
2021/04/29 08:19:13;;;;;;;2.25;1.13;;;;;;;;;;5021150;28;20559;-77
2021/04/29 08:21:41;;;;;;;2.03;1.00;;;;;;;;;;5037345;28;20043;-79
2021/04/29 08:24:07;;;;;;;2.63;1.08;;;;;;;;;;5023073;28;20039;-80
2021/04/29 08:26:32;;;;;;;2.33;1.30;;;;;;;;;;5022853;28;20365;-80
2021/04/29 08:28:58;;;;;;;2.23;1.00;;;;;;;;;;5036491;28;20409;-80
2021/04/29 08:31:23;;;;;;;2.03;1.20;;;;;;;;;;5034960;28;20503;-78
2021/04/29 08:33:48;;;;;;;1.70;1.10;;;;;;;;;;5054652;28;20123;-78
2021/04/29 08:36:14;;;;;;;1.50;1.00;;;;;;;;;;5057158;28;20032;-78
2021/04/29 08:38:39;;;;;;;2.50;1.20;;;;;;;;;;5041131;28;20064;-78
2021/04/29 08:41:04;;;;;;;1.80;1.00;;;;;;;;;;5057575;28;20028;-78
2021/04/29 08:43:30;;;;;;;3.60;1.37;;;;;;;;;;5040815;28;20406;-78
2021/04/29 08:45:55;;;;;;;2.50;1.33;;;;;;;;;;5040527;28;20060;-78
2021/04/29 08:48:22;;;;;;;2.20;1.20;;;;;;;;;;5039982;28;20036;-78
2021/04/29 08:50:48;;;;;;;1.98;1.15;;;;;;;;;;5057547;28;20074;-78
2021/04/29 08:53:13;;;;;;;2.37;1.23;;;;;;;;;;5040348;28;20033;-78
2021/04/29 08:55:39;;;;;;;1.60;1.20;;;;;;;;;;5038678;28;20029;-77
2021/04/29 08:58:04;;;;;;;2.60;1.10;;;;;;;;;;5039764;28;20035;-77
2021/04/29 09:00:29;;;;;;;1.67;1.10;;;;;;;;;;5037647;28;20033;-77
2021/04/29 09:02:55;;;;;;;2.97;1.23;;;;;;;;;;5056516;28;20464;-78
2021/04/29 09:05:23;;;;;;;2.00;1.10;;;;;;;;;;5072990;28;20024;-78
2021/04/29 09:07:57;;;;;;;1.60;1.02;;;;;;;;;;5050338;28;20399;-77
2021/04/29 09:10:24;;;;;;;1.73;1.10;;;;;;;;;;5054435;28;20063;-78
2021/04/29 09:12:50;;;;;;;2.05;0.90;;;;;;;;;;5036315;28;20040;-77
2021/04/29 09:15:29;;;;;;;1.60;0.83;;;;;;;;;;5036438;28;20064;-78
2021/04/29 09:18:17;;;;;;;1.88;1.15;;;;;;;;;;5037056;28;20029;-78
2021/04/29 09:20:50;;;;;;;2.08;1.20;;;;;;;;;;5048666;28;20495;-77
2021/04/29 09:23:18;;;;;;;2.80;1.10;;;;;;;;;;5072665;28;20037;-77
2021/04/29 09:25:54;;;;;;;1.73;1.02;;;;;;;;;;5056702;28;20032;-77
2021/04/29 09:28:19;;;;;;;1.67;1.00;;;;;;;;;;5056051;28;20043;-77
2021/04/29 09:30:45;;;;;;;3.23;1.00;;;;;;;;;;5056011;28;20037;-77
2021/04/29 09:33:10;;;;;;;1.53;1.00;;;;;;;;;;5055746;28;20123;-77
2021/04/29 09:35:38;;;;;;;1.80;1.07;;;;;;;;;;5055762;28;20063;-77
2021/04/29 09:38:09;;;;;;;2.65;1.15;;;;;;;;;;5072637;28;20403;-77
2021/04/29 09:40:38;;;;;;;1.83;1.08;;;;;;;;;;5056469;28;20115;-77
2021/04/29 09:43:04;;;;;;;2.50;1.30;;;;;;;;;;5040153;28;20060;-77
2021/04/29 09:45:33;;;;;;;2.07;1.07;;;;;;;;;;5038687;28;20060;-77
2021/04/29 09:48:10;;;;;;;2.53;1.23;;;;;;;;;;5056180;28;20036;-77
2021/04/29 09:50:41;;;;;;;2.30;1.10;;;;;;;;;;5055530;28;20479;-77
2021/04/29 09:53:08;;;;;;;2.95;1.20;;;;;;;;;;5056116;28;20036;-78
2021/04/29 09:55:36;;;;;;;2.47;1.17;;;;;;;;;;5055423;28;20028;-77
2021/04/29 09:58:16;;;;;;;1.63;0.93;;;;;;;;;;5055454;28;20093;-77
2021/04/29 10:00:42;;;;;;;1.58;0.90;;;;;;;;;;5071913;28;20044;-77
2021/04/29 10:03:07;;;;;;;1.90;1.10;;;;;;;;;;5071737;28;20032;-77
2021/04/29 10:05:37;;;;;;;1.30;0.87;;;;;;;;;;5055733;28;20039;-77
2021/04/29 10:08:03;;;;;;;1.80;1.10;;;;;;;;;;5055913;28;20041;-77
2021/04/29 10:10:31;;;;;;;1.90;1.10;;;;;;;;;;5043877;28;20062;-77
2021/04/29 10:12:57;;;;;;;1.88;1.00;;;;;;;;;;5038921;28;20042;-77
2021/04/29 10:15:22;;;;;;;1.80;1.00;;;;;;;;;;5055018;28;20126;-77
2021/04/29 10:17:47;;;;;;;1.47;0.90;;;;;;;;;;5055521;28;20066;-78
2021/04/29 10:20:13;;;;;;;1.70;1.10;;;;;;;;;;5055236;28;20159;-78
2021/04/29 10:22:39;;;;;;;2.78;1.02;;;;;;;;;;5038708;28;20032;-78
2021/04/29 10:25:04;;;;;;;2.10;1.00;;;;;;;;;;5055218;28;20064;-78
2021/04/29 10:27:30;;;;;;;1.90;1.10;;;;;;;;;;5038352;28;20127;-78
2021/04/29 10:30:09;;;;;;;1.63;1.00;;;;;;;;;;5055434;28;20044;-77
2021/04/29 10:32:35;;;;;;;1.80;1.05;;;;;;;;;;5052418;23;20190;-77
2021/04/29 10:35:13;;;;;;;1.60;0.90;;;;;;;;;;5033705;28;20041;-77
2021/04/29 10:37:38;;;;;;;2.00;0.85;;;;;;;;;;5015218;28;20287;-77
2021/04/29 10:40:06;;;;;;;1.90;1.00;;;;;;;;;;5011099;28;20484;-77
2021/04/29 10:42:43;;;;;;;1.73;1.10;;;;;;;;;;5013098;28;20036;-76
2021/04/29 10:45:10;;;;;;;1.60;0.95;;;;;;;;;;4979301;28;20080;-76
2021/04/29 10:47:35;;;;;;;2.20;1.00;;;;;;;;;;4995418;28;20038;-75
2021/04/29 10:50:19;;;;;;;1.53;0.90;;;;;;;;;;4979372;28;20488;-75
2021/04/29 10:52:45;;;;;;;1.92;0.98;;;;;;;;;;5011917;28;20030;-76
2021/04/29 10:55:30;;;;;;;1.52;1.00;;;;;;;;;;4995512;28;20152;-75
2021/04/29 10:57:56;;;;;;;1.60;1.00;;;;;;;;;;4986327;28;20021;-76
2021/04/29 11:00:22;;;;;;;2.05;0.90;;;;;;;;;;4998360;28;20107;-76
2021/04/29 11:03:00;;;;;;;1.73;1.10;;;;;;;;;;5002459;28;20116;-76
2021/04/29 11:05:26;;;;;;;1.80;0.95;;;;;;;;;;5069011;23;20048;-75
2021/04/29 11:07:52;;;;;;;1.83;1.02;;;;;;;;;;5082886;28;20036;-76
2021/04/29 11:10:17;;;;;;;2.30;1.00;;;;;;;;;;5108684;28;20074;-76
2021/04/29 11:12:49;;;;;;;1.67;1.10;;;;;;;;;;5059166;28;20039;-76
2021/04/29 11:15:33;;;;;;;1.33;0.82;;;;;;;;;;5111458;28;20036;-76
2021/04/29 11:17:59;;;;;;;2.25;1.10;;;;;;;;;;5055505;28;20032;-76
2021/04/29 11:20:24;;;;;;;1.80;1.13;;;;;;;;;;5078191;28;20032;-76
2021/04/29 11:22:54;;;;;;;1.47;0.97;;;;;;;;;;5111887;28;20031;-74
2021/04/29 11:25:19;;;;;;;1.77;1.00;;;;;;;;;;5098453;28;20398;-76
2021/04/29 11:27:45;;;;;;;2.47;1.07;;;;;;;;;;5092724;28;20059;-75
2021/04/29 11:30:13;;;;;;;1.50;0.90;;;;;;;;;;5095533;28;20472;-76
2021/04/29 11:32:38;;;;;;;1.27;0.80;;;;;;;;;;5077596;28;20032;-76
2021/04/29 11:35:19;;;;;;;1.73;1.00;;;;;;;;;;5077610;28;20505;-75
2021/04/29 11:37:44;;;;;;;3.03;0.95;;;;;;;;;;5078291;28;20494;-75
2021/04/29 11:40:12;;;;;;;2.50;0.93;;;;;;;;;;5078158;28;20136;-75
2021/04/29 11:42:37;;;;;;;1.65;0.93;;;;;;;;;;5077857;28;20513;-75
2021/04/29 11:45:10;;;;;;;1.90;0.97;;;;;;;;;;5095393;28;20036;-75
2021/04/29 11:47:37;;;;;;;1.77;1.00;;;;;;;;;;5077508;28;20481;-76
2021/04/29 11:50:03;;;;;;;2.85;1.00;;;;;;;;;;5077501;28;20405;-76
2021/04/29 11:52:28;;;;;;;1.80;1.00;;;;;;;;;;5061324;28;20020;-76
2021/04/29 11:54:54;;;;;;;1.43;0.83;;;;;;;;;;5077755;28;20105;-76
2021/04/29 11:57:19;;;;;;;1.60;0.90;;;;;;;;;;5077237;28;20039;-76
2021/04/29 11:59:52;;;;;;;1.50;0.90;;;;;;;;;;5060192;28;20040;-77
2021/04/29 12:02:17;;;;;;;1.52;0.88;;;;;;;;;;5074768;28;20088;-77
2021/04/29 12:04:44;;;;;;;1.50;0.90;;;;;;;;;;5058921;28;20040;-77
2021/04/29 12:07:10;;;;;;;1.45;0.93;;;;;;;;;;5058022;28;20159;-76
2021/04/29 12:09:35;;;;;;;1.50;0.90;;;;;;;;;;5093191;28;20485;-77
2021/04/29 12:12:12;;;;;;;1.37;0.90;;;;;;;;;;5074417;28;20062;-77
2021/04/29 12:14:37;;;;;;;1.98;0.90;;;;;;;;;;5058299;28;20132;-76
2021/04/29 12:17:04;;;;;;;2.47;1.00;;;;;;;;;;5074597;28;20488;-77
2021/04/29 12:19:29;;;;;;;1.70;1.00;;;;;;;;;;5075132;28;20793;-77
2021/04/29 12:21:55;;;;;;;1.77;0.93;;;;;;;;;;5093066;28;20040;-76
2021/04/29 12:24:21;;;;;;;1.37;0.80;;;;;;;;;;5057697;28;20032;-77
2021/04/29 12:26:46;;;;;;;1.63;0.97;;;;;;;;;;5072928;28;20080;-77
2021/04/29 12:29:12;;;;;;;1.30;0.80;;;;;;;;;;5092873;28;20040;-76
2021/04/29 12:31:39;;;;;;;1.85;0.90;;;;;;;;;;5057313;28;20068;-76
2021/04/29 12:34:06;;;;;;;1.73;1.00;;;;;;;;;;5056630;28;20039;-77
2021/04/29 12:36:49;;;;;;;;;;;;;;;;;;5057030;28;20075;-76
2021/04/29 12:39:15;;;;;;;1.75;0.90;;;;;;;;;;5091390;28;19934;-77
2021/04/29 12:41:42;;;;;;;3.00;0.88;;;;;;;;;;5056473;28;20040;-77
2021/04/29 12:44:08;;;;;;;1.60;0.80;;;;;;;;;;5056432;28;20118;-77
2021/04/29 12:46:37;;;;;;;3.07;1.00;;;;;;;;;;5056134;28;20123;-77
2021/04/29 12:49:04;;;;;;;2.15;1.00;;;;;;;;;;5056150;28;20036;-77
2021/04/29 12:51:29;;;;;;;1.85;0.93;;;;;;;;;;5072844;28;20039;-76
2021/04/29 12:54:07;;;;;;;1.20;0.87;;;;;;;;;;5072618;28;20039;-75
2021/04/29 12:56:38;;;;;;;1.60;0.80;;;;;;;;;;5058306;28;20515;-75
2021/04/29 12:59:19;;;;;;;1.30;0.80;;;;;;;;;;5037787;28;20376;-76
2021/04/29 13:01:45;;;;;;;1.52;0.93;;;;;;;;;;5076102;28;20502;-76
2021/04/29 13:04:21;;;;;;;2.25;0.90;;;;;;;;;;5076417;28;20051;-75
2021/04/29 13:06:46;;;;;;;1.58;0.80;;;;;;;;;;5094219;28;20557;-76
2021/04/29 13:09:12;;;;;;;1.80;0.77;;;;;;;;;;5076467;28;20129;-76
2021/04/29 13:11:43;;;;;;;2.20;1.10;;;;;;;;;;5076545;28;20068;-76
2021/04/29 13:14:10;;;;;;;1.35;0.88;;;;;;;;;;5077061;28;20478;-76
2021/04/29 13:16:36;;;;;;;1.65;0.90;;;;;;;;;;5094122;28;20077;-76
2021/04/29 13:19:02;;;;;;;2.30;1.23;;;;;;;;;;5058790;28;20030;-76
2021/04/29 13:21:28;;;;;;;1.40;0.80;;;;;;;;;;5076199;28;20032;-76
2021/04/29 13:23:54;;;;;;;1.50;0.80;;;;;;;;;;5094383;28;20115;-76
2021/04/29 13:26:20;;;;;;;1.92;1.08;;;;;;;;;;5094050;28;20127;-76
2021/04/29 13:28:45;;;;;;;1.67;0.87;;;;;;;;;;5075829;28;20036;-76
2021/04/29 13:31:10;;;;;;;1.83;0.90;;;;;;;;;;5094080;28;20278;-76
2021/04/29 13:33:36;;;;;;;0.97;0.80;;;;;;;;;;5075830;28;20051;-76
2021/04/29 13:36:01;;;;;;;1.13;0.80;;;;;;;;;;5059232;28;20028;-76
2021/04/29 13:38:26;;;;;;;1.50;0.90;;;;;;;;;;5044162;28;20083;-76
2021/04/29 13:40:52;;;;;;;1.87;1.10;;;;;;;;;;5055705;28;20036;-76
2021/04/29 13:43:17;;;;;;;3.33;1.60;;;;;;;;;;5073453;28;20067;-76
2021/04/29 13:45:45;;;;;;;2.77;1.57;;;;;;;;;;5054297;28;20115;-76
2021/04/29 13:48:11;;;;;;;3.95;1.65;;;;;;;;;;5093676;28;20081;-76
2021/04/29 13:50:36;;;;;;;3.90;1.90;;;;;;;;;;5092893;28;20028;-75
2021/04/29 13:53:01;;;;;;;3.30;2.00;;;;;;;;;;5058873;28;20067;-75
2021/04/29 13:55:27;;;;;;;3.97;1.83;;;;;;;;;;5090405;28;20070;-77
2021/04/29 13:57:52;;;;;;;4.47;1.97;;;;;;;;;;5075401;28;20032;-76
2021/04/29 14:00:17;;;;;;;3.40;1.80;;;;;;;;;;5082720;28;20487;-76
2021/04/29 14:02:43;;;;;;;3.43;2.00;;;;;;;;;;5056281;28;20486;-76
2021/04/29 14:05:08;;;;;;;3.53;1.77;;;;;;;;;;5073790;28;20153;-76
2021/04/29 14:07:34;;;;;;;4.57;1.70;;;;;;;;;;5093220;28;20032;-76
2021/04/29 14:09:59;;;;;;;2.23;1.20;;;;;;;;;;5093485;28;20059;-76
2021/04/29 14:12:24;;;;;;;2.67;1.40;;;;;;;;;;5063507;28;20541;-75
2021/04/29 14:14:50;;;;;;;2.43;1.40;;;;;;;;;;5055196;28;20060;-76
2021/04/29 14:17:15;;;;;;;2.60;1.27;;;;;;;;;;5056655;28;20036;-76
2021/04/29 14:19:43;;;;;;;2.47;1.17;;;;;;;;;;5075607;28;20032;-77
2021/04/29 14:22:09;;;;;;;2.10;1.00;;;;;;;;;;5075301;28;20051;-77
2021/04/29 14:24:34;;;;;;;2.07;1.20;;;;;;;;;;5075182;28;20482;-76
2021/04/29 14:27:00;;;;;;;1.70;1.20;;;;;;;;;;5048892;28;20135;-76
2021/04/29 14:29:25;;;;;;;1.87;1.07;;;;;;;;;;5038275;28;20064;-76
2021/04/29 14:31:50;;;;;;;1.90;1.10;;;;;;;;;;5078278;28;20117;-76
2021/04/29 14:34:16;;;;;;;1.87;1.03;;;;;;;;;;5059282;28;20107;-76
2021/04/29 14:36:41;;;;;;;3.13;1.10;;;;;;;;;;5059074;28;20028;-76
2021/04/29 14:39:06;;;;;;;3.03;1.40;;;;;;;;;;5087565;28;20086;-76
2021/04/29 14:41:32;;;;;;;1.83;1.03;;;;;;;;;;5097410;28;20063;-76